KGNC

Details ICAO KGNC
Name GAINES CO
Region United States
Timezone America/Chicago (UTC-6.0)
Plans Departing 3
Arriving 7
Stats Elevation 3,315 ft / 1,010 m (AMSL)
Location 32.675215° -102.652514°
Runways 2
Magnetic Variation 6.511° E
Sunrise 2017-12-17 13:48:07 UTC / 2017-12-17 07:48:07 Local
Sunset 2017-12-17 23:48:21 UTC / 2017-12-17 17:48:21 Local
Advertisement - Login to hide

Runways

ID Width Length Bearing (true) Bearing (mag) Surface Threshold Offset Overrun Length
08 75 ft / 23 m 5,366 ft / 1,636 m 89.71° 83.20° Asphalt 0 ft / 0 m 0 ft / 0 m
17 75 ft / 23 m 5,012 ft / 1,528 m 179.37° 172.86° Asphalt 0 ft / 0 m 0 ft / 0 m
26 75 ft / 23 m 5,366 ft / 1,636 m 269.72° 263.21° Asphalt 0 ft / 0 m 0 ft / 0 m
35 75 ft / 23 m 5,012 ft / 1,528 m 359.37° 352.86° Asphalt 0 ft / 0 m 0 ft / 0 m

Map

Weather


0- 5 10 15 20 25 30 35+ Temperature / ° C

Clouds and Precipitation
Forecast for 2017-12-18 00:00 UTC. Updated an hour ago

Ground ~20,000 ft ~40,000 ft Winds

METAR

KGNC 172155Z AUTO 15004KT 10SM CLR 16/M04 A2998 RMK AO2 T01631042

TAF

Not found

Frequencies

Recorded 118.07 MHz AWOS 3
Approach 132.60 MHz FORT WORTH CNTR
Unicom 122.80 MHz CTAF/UNICOM
Warning: Do not use this data for real-world aviation or navigation. No guarantee of current accuracy is given.